Time;durP1;ratioP1;P1;durP2;ratioP2;P2;SDS_P1;SDS_P2;PMS_P1;PMS_P2;Temp;Humidity;BMP_temperature;BMP_pressure;BME280_temperature;BME280_humidity;BME280_pressure;Samples;Min_cycle;Max_cycle;Signal;HPM_P1;HPM_P2
2023/09/20 00:00:57;;;;;;;12.75;7.03;;;20.10;99.90;;;;;;4976353;28;20138;-83
2023/09/20 00:03:25;;;;;;;14.68;6.30;;;20.10;99.90;;;;;;4963069;28;20441;-83
2023/09/20 00:05:52;;;;;;;10.55;4.85;;;20.00;99.90;;;;;;4957792;28;20074;-84
2023/09/20 00:08:18;;;;;;;9.35;4.28;;;20.10;99.90;;;;;;4962196;28;20086;-82
2023/09/20 00:10:45;;;;;;;7.15;2.70;;;20.00;99.90;;;;;;4958006;29;20027;-82
2023/09/20 00:13:11;;;;;;;8.95;2.88;;;20.00;99.90;;;;;;4956888;29;20027;-84
2023/09/20 00:15:40;;;;;;;9.90;3.15;;;20.00;99.90;;;;;;4957742;28;20039;-81
2023/09/20 00:18:07;;;;;;;8.27;2.92;;;19.90;99.90;;;;;;4956790;28;20027;-82
2023/09/20 00:20:33;;;;;;;9.43;3.13;;;19.90;99.90;;;;;;4958681;28;20047;-84
2023/09/20 00:23:00;;;;;;;10.57;2.67;;;19.80;99.90;;;;;;4972295;28;20031;-84
2023/09/20 00:25:27;;;;;;;5.30;2.28;;;19.80;99.90;;;;;;4956494;29;20035;-83
2023/09/20 00:27:53;;;;;;;8.13;2.25;;;19.80;99.90;;;;;;4956575;28;20051;-81
2023/09/20 00:30:19;;;;;;;7.30;2.63;;;19.80;99.90;;;;;;4956245;29;20027;-83
2023/09/20 00:32:45;;;;;;;6.60;2.55;;;19.70;99.90;;;;;;4957772;29;20019;-83
2023/09/20 00:35:17;;;;;;;10.32;2.75;;;19.70;99.90;;;;;;4959659;28;20049;-83
2023/09/20 00:37:47;;;;;;;7.15;2.78;;;19.60;99.90;;;;;;4960398;28;20034;-82
2023/09/20 00:40:20;;;;;;;8.73;3.10;;;19.60;99.90;;;;;;4966730;28;20050;-82
2023/09/20 00:42:50;;;;;;;7.97;2.65;;;19.50;99.90;;;;;;4981188;28;20046;-81
2023/09/20 00:45:17;;;;;;;9.93;2.40;;;19.50;99.90;;;;;;4956669;28;20035;-81
2023/09/20 00:47:47;;;;;;;6.43;2.15;;;19.40;99.90;;;;;;4957828;28;20109;-82
2023/09/20 00:50:14;;;;;;;12.27;2.25;;;19.40;99.90;;;;;;4936365;29;20075;-83
2023/09/20 00:52:46;;;;;;;6.70;3.20;;;19.40;99.90;;;;;;4933720;29;20430;-83
2023/09/20 00:55:15;;;;;;;5.55;2.33;;;19.40;99.90;;;;;;4919489;29;20040;-82
2023/09/20 00:57:45;;;;;;;8.07;2.17;;;19.40;99.90;;;;;;4904720;29;20040;-83
2023/09/20 01:00:27;;;;;;;6.88;1.92;;;19.40;99.90;;;;;;4918107;29;20439;-81
2023/09/20 01:02:54;;;;;;;6.03;2.13;;;19.40;99.90;;;;;;4916755;29;20460;-82
2023/09/20 01:05:21;;;;;;;9.07;2.13;;;19.40;99.90;;;;;;4918634;29;20036;-81
2023/09/20 01:07:50;;;;;;;7.65;2.47;;;19.30;99.90;;;;;;4917259;29;20092;-83
2023/09/20 01:10:18;;;;;;;9.38;2.35;;;19.30;99.90;;;;;;4904043;29;20088;-84
2023/09/20 01:12:44;;;;;;;9.88;2.47;;;19.20;99.90;;;;;;4900546;29;20545;-82
2023/09/20 01:15:10;;;;;;;18.20;3.90;;;19.20;99.90;;;;;;4916505;29;20036;-83
2023/09/20 01:17:49;;;;;;;10.77;2.35;;;19.20;99.90;;;;;;4900792;29;20396;-81
2023/09/20 01:20:19;;;;;;;12.93;2.45;;;19.10;99.90;;;;;;4899676;29;20122;-83
2023/09/20 01:22:46;;;;;;;9.32;2.35;;;19.10;99.90;;;;;;4955493;28;20031;-83
2023/09/20 01:25:22;;;;;;;10.55;2.10;;;19.10;99.90;;;;;;4956354;28;20030;-82
2023/09/20 01:27:50;;;;;;;8.07;2.45;;;19.10;99.90;;;;;;4956248;28;20047;-82
2023/09/20 01:30:16;;;;;;;7.40;2.90;;;19.10;99.90;;;;;;4955588;28;20166;-82
2023/09/20 01:32:43;;;;;;;9.82;2.40;;;19.10;99.90;;;;;;4956368;28;20035;-83
2023/09/20 01:35:10;;;;;;;9.30;3.08;;;19.10;99.90;;;;;;4955742;28;20031;-82
2023/09/20 01:37:36;;;;;;;9.85;3.05;;;19.00;99.90;;;;;;4973965;28;20054;-83
2023/09/20 01:40:07;;;;;;;10.13;2.60;;;19.00;99.90;;;;;;4971382;28;20034;-82
2023/09/20 01:42:33;;;;;;;10.80;3.17;;;19.00;99.90;;;;;;4956214;28;20122;-82
2023/09/20 01:44:59;;;;;;;8.88;2.72;;;19.00;99.90;;;;;;4955889;28;20114;-81
2023/09/20 01:47:26;;;;;;;5.82;2.75;;;19.00;99.90;;;;;;4956652;29;20035;-83
2023/09/20 01:52:20;;;;;;;8.15;3.60;;;18.90;99.90;;;;;;5070575;28;20403;-79
2023/09/20 01:54:47;;;;;;;12.15;2.72;;;18.90;99.90;;;;;;5070219;28;20110;-81
2023/09/20 01:57:12;;;;;;;7.13;2.45;;;18.90;99.90;;;;;;5069083;28;20456;-81
2023/09/20 01:59:38;;;;;;;8.55;2.53;;;18.80;99.90;;;;;;5068752;28;20029;-80
2023/09/20 02:02:04;;;;;;;8.82;2.25;;;18.70;99.90;;;;;;5069536;28;20078;-80
2023/09/20 02:04:31;;;;;;;11.25;2.75;;;18.70;99.90;;;;;;5069127;28;20037;-80
2023/09/20 02:06:59;;;;;;;6.60;2.08;;;18.70;99.90;;;;;;5063672;28;20027;-79
2023/09/20 02:09:24;;;;;;;4.53;2.10;;;18.60;99.90;;;;;;5068975;28;20036;-83
2023/09/20 02:11:50;;;;;;;7.60;2.60;;;18.50;99.90;;;;;;5069988;28;20041;-81
2023/09/20 02:14:16;;;;;;;4.38;2.28;;;18.50;99.90;;;;;;5069646;28;20107;-82
2023/09/20 02:16:42;;;;;;;5.75;2.35;;;18.50;99.90;;;;;;5063165;28;20119;-82
2023/09/20 02:19:08;;;;;;;6.47;2.28;;;18.50;99.90;;;;;;5069034;28;20108;-82
2023/09/20 02:21:34;;;;;;;6.80;2.28;;;18.40;99.90;;;;;;5068825;28;20060;-84
2023/09/20 02:24:00;;;;;;;9.20;2.50;;;18.30;99.90;;;;;;5069290;28;20041;-83
2023/09/20 02:26:26;;;;;;;16.70;3.13;;;18.30;99.90;;;;;;5069897;28;20037;-82
2023/09/20 02:28:52;;;;;;;13.85;2.00;;;18.20;99.90;;;;;;5068222;28;20116;-83
2023/09/20 02:31:18;;;;;;;6.38;2.30;;;18.20;99.90;;;;;;5068070;28;20123;-82
2023/09/20 02:33:44;;;;;;;6.38;2.40;;;18.20;99.90;;;;;;5069569;28;20502;-82
2023/09/20 02:36:11;;;;;;;6.47;2.28;;;18.20;99.90;;;;;;5069476;28;20051;-84
2023/09/20 02:38:37;;;;;;;6.63;2.40;;;18.20;99.90;;;;;;5067991;28;20020;-82
2023/09/20 02:41:03;;;;;;;12.65;3.22;;;18.20;99.90;;;;;;5068325;28;20463;-83
2023/09/20 02:43:29;;;;;;;8.80;2.15;;;18.20;99.90;;;;;;5069199;28;20133;-83
2023/09/20 02:45:59;;;;;;;8.02;3.70;;;18.20;99.90;;;;;;5069556;28;20103;-82
2023/09/20 02:48:26;;;;;;;6.40;2.40;;;18.20;99.90;;;;;;5068145;28;20167;-83
2023/09/20 02:50:53;;;;;;;9.65;2.80;;;18.20;99.90;;;;;;5068984;28;20055;-82
2023/09/20 02:53:21;;;;;;;10.88;3.38;;;18.10;99.90;;;;;;5069666;28;20025;-83
2023/09/20 02:55:47;;;;;;;7.80;2.22;;;18.20;99.90;;;;;;5069776;28;20064;-84
2023/09/20 02:58:13;;;;;;;9.38;2.53;;;18.10;99.90;;;;;;5069362;28;20056;-84
2023/09/20 03:00:46;;;;;;;14.48;2.80;;;18.20;99.90;;;;;;5069449;28;20035;-81
2023/09/20 03:03:15;;;;;;;5.90;2.33;;;18.20;99.90;;;;;;5057452;28;20024;-83
2023/09/20 03:05:41;;;;;;;11.23;2.65;;;18.10;99.90;;;;;;5054735;28;20025;-82
2023/09/20 03:08:13;;;;;;;9.85;2.47;;;18.10;99.90;;;;;;5056397;28;20029;-82
2023/09/20 03:10:41;;;;;;;5.18;1.92;;;18.10;99.90;;;;;;5056038;28;20033;-82
2023/09/20 03:13:10;;;;;;;8.65;2.83;;;18.20;99.90;;;;;;5056339;28;20040;-83
2023/09/20 03:15:43;;;;;;;9.20;2.42;;;18.20;99.90;;;;;;5056332;28;20028;-84
2023/09/20 03:18:11;;;;;;;7.03;2.22;;;18.20;99.90;;;;;;5054944;28;20036;-82
2023/09/20 03:20:38;;;;;;;6.75;2.88;;;18.20;99.90;;;;;;5056098;28;20033;-83
2023/09/20 03:23:05;;;;;;;8.00;2.30;;;18.30;99.90;;;;;;5055831;28;20021;-83
2023/09/20 03:25:38;;;;;;;5.88;2.22;;;18.30;99.90;;;;;;5055606;28;20460;-83
2023/09/20 03:28:07;;;;;;;6.78;3.05;;;18.30;99.90;;;;;;5054772;28;20067;-82
2023/09/20 03:30:34;;;;;;;12.10;4.28;;;18.40;99.90;;;;;;5055934;28;20025;-81
2023/09/20 03:33:00;;;;;;;12.00;2.78;;;18.40;99.90;;;;;;5054034;28;20025;-82
2023/09/20 03:35:26;;;;;;;7.20;2.72;;;18.40;99.90;;;;;;5055336;28;20511;-81
2023/09/20 03:37:52;;;;;;;7.68;3.38;;;18.40;99.90;;;;;;5055282;28;20100;-81
2023/09/20 03:40:19;;;;;;;7.50;2.55;;;18.40;99.90;;;;;;5055370;28;20360;-82
2023/09/20 03:42:46;;;;;;;7.82;2.58;;;18.40;99.90;;;;;;5055366;28;20032;-82
2023/09/20 03:45:15;;;;;;;7.18;2.75;;;18.40;99.90;;;;;;5055243;28;20116;-81
2023/09/20 03:47:47;;;;;;;6.45;3.03;;;18.40;99.90;;;;;;5054731;28;20032;-81
2023/09/20 03:50:13;;;;;;;6.50;3.08;;;18.40;99.90;;;;;;5054524;28;20037;-83
2023/09/20 03:52:39;;;;;;;8.52;3.20;;;18.40;99.90;;;;;;5054105;28;20036;-83
2023/09/20 03:55:06;;;;;;;9.13;2.72;;;18.30;99.90;;;;;;5054291;28;20388;-81
2023/09/20 03:57:33;;;;;;;6.50;2.78;;;18.30;99.90;;;;;;5054157;28;20029;-81
2023/09/20 03:59:59;;;;;;;6.55;2.72;;;18.20;99.90;;;;;;5070511;28;20392;-82
2023/09/20 04:02:26;;;;;;;12.35;3.00;;;18.10;99.90;;;;;;5055072;28;20391;-82
2023/09/20 04:04:53;;;;;;;10.30;3.42;;;18.10;99.90;;;;;;5070640;28;20532;-81
2023/09/20 04:07:48;;;;;;;10.50;3.45;;;18.10;99.90;;;;;;5054893;28;20033;-90
2023/09/20 04:10:16;;;;;;;11.10;3.30;;;18.10;99.90;;;;;;5055069;28;20167;-82
2023/09/20 04:12:42;;;;;;;9.20;3.33;;;18.10;99.90;;;;;;5054875;28;20364;-84
2023/09/20 04:15:08;;;;;;;7.45;3.03;;;18.00;99.90;;;;;;5054135;28;20124;-84
2023/09/20 04:17:38;;;;;;;6.10;3.30;;;18.00;99.90;;;;;;5053600;28;20036;-84
2023/09/20 04:20:05;;;;;;;8.60;3.65;;;18.00;99.90;;;;;;5053514;28;20029;-84
2023/09/20 04:22:32;;;;;;;14.43;6.60;;;18.00;99.90;;;;;;5053246;28;20462;-83
2023/09/20 04:24:59;;;;;;;15.02;5.47;;;17.90;99.90;;;;;;5052262;28;20451;-84
2023/09/20 11:00:30;;;;;;;2.58;1.38;;;;;;;;;;5111549;27;20414;-88
2023/09/20 11:02:57;;;;;;;10.63;1.50;;;;;;;;;;5106667;28;20032;-88
2023/09/20 11:05:23;;;;;;;7.80;1.73;;;;;;;;;;5124907;28;20020;-84
2023/09/20 11:08:24;;;;;;;5.63;1.52;;;;;;;;;;5090914;27;20413;-83
2023/09/20 11:10:50;;;;;;;4.85;1.20;;;;;;;;;;5070002;28;20087;-84
2023/09/20 11:13:19;;;;;;;3.85;1.77;;;;;;;;;;5080009;28;20033;-85
2023/09/20 11:15:46;;;;;;;3.22;1.23;;;;;;;;;;5082195;28;20103;-84
2023/09/20 11:18:16;;;;;;;6.90;1.58;;;;;;;;;;5089553;28;20028;-84
2023/09/20 11:20:45;;;;;;;6.72;1.50;;;;;;;;;;5091257;28;20028;-85
2023/09/20 11:23:11;;;;;;;1.92;1.05;;;;;;;;;;5089633;28;20039;-84
2023/09/20 11:25:37;;;;;;;3.80;1.30;;;;;;;;;;5089758;28;20115;-84
2023/09/20 11:28:14;;;;;;;3.33;1.23;;;;;;;;;;5089852;28;20169;-85
2023/09/20 11:30:43;;;;;;;4.65;1.45;;;;;;;;;;5089698;28;20225;-83
2023/09/20 11:33:29;;;;;;;3.85;1.92;;;;;;;;;;5089592;28;20111;-85
2023/09/20 11:35:58;;;;;;;7.88;1.88;;;;;;;;;;5089629;28;20031;-84
2023/09/20 11:38:27;;;;;;;5.05;1.92;;;;;;;;;;5075965;28;20032;-84
2023/09/20 11:40:53;;;;;;;3.70;1.10;;;;;;;;;;5086407;28;20479;-84
2023/09/20 13:02:12;;;;;;;5.35;2.08;;;;;;;;;;4977096;28;20030;-86
2023/09/20 13:07:47;;;;;;;2.03;1.23;;;;;;;;;;4950441;28;20397;-88
2023/09/20 13:11:05;;;;;;;;;;;;;;;;;;;;;
2023/09/20 13:13:32;;;;;;;5.13;1.60;;;;;;;;;;4895402;29;20036;-87
2023/09/20 13:16:29;;;;;;;5.68;2.20;;;;;;;;;;4881737;29;20037;-86
2023/09/20 13:19:26;;;;;;;;;;;;;;;;;;;;;
2023/09/20 13:22:29;;;;;;;9.13;1.83;;;;;;;;;;4898009;29;20500;-87
2023/09/20 13:25:08;;;;;;;5.50;1.80;;;;;;;;;;4882042;29;20172;-87
2023/09/20 13:28:00;;;;;;;9.13;1.98;;;;;;;;;;4882270;29;20040;-88
2023/09/20 13:30:28;;;;;;;5.28;2.10;;;;;;;;;;4896514;29;20070;-88
2023/09/20 13:32:57;;;;;;;7.95;1.83;;;;;;;;;;4897765;29;20059;-87
2023/09/20 13:35:23;;;;;;;5.82;2.17;;;;;;;;;;4882072;29;20063;-87
2023/09/20 13:37:50;;;;;;;7.68;2.20;;;;;;;;;;4882489;29;20036;-89
2023/09/20 13:40:36;;;;;;;5.18;1.98;;;;;;;;;;4951815;28;20062;-88
2023/09/20 13:43:39;;;;;;;2.85;1.52;;;;;;;;;;4958061;28;20046;-88
2023/09/20 13:46:32;;;;;;;4.85;1.70;;;;;;;;;;4958013;28;20042;-87
2023/09/20 13:48:58;;;;;;;5.43;2.33;;;;;;;;;;4881964;29;20511;-86
2023/09/20 13:51:55;;;;;;;;;;;;;;;;;;;;;
2023/09/20 13:55:01;;;;;;;4.47;1.98;;;;;;;;;;4894629;29;20043;-85
2023/09/20 14:03:15;;;;;;;5.70;2.38;;;;;;;;;;4897742;29;20051;-86
2023/09/20 14:06:04;;;;;;;7.18;1.90;;;;;;;;;;4880977;29;20040;-85
2023/09/20 14:09:09;;;;;;;6.57;2.10;;;;;;;;;;4892020;29;20048;-86
2023/09/20 14:11:35;;;;;;;5.07;2.00;;;;;;;;;;4850207;29;20121;-86
2023/09/20 14:23:11;;;;;;;4.53;2.33;;;;;;;;;;4896849;29;20077;-89
2023/09/20 14:25:37;;;;;;;5.43;1.83;;;;;;;;;;4904367;29;20055;-85
2023/09/20 14:31:17;;;;;;;6.05;1.90;;;;;;;;;;4957059;29;20123;-87
2023/09/20 14:33:45;;;;;;;5.00;2.17;;;;;;;;;;4954775;29;20085;-87
2023/09/20 14:36:11;;;;;;;8.48;1.88;;;;;;;;;;4954779;29;20474;-88
2023/09/20 14:39:00;;;;;;;7.55;2.15;;;;;;;;;;4954812;28;20042;-86
2023/09/20 14:53:46;;;;;;;6.97;2.88;;;;;;;;;;4921902;28;20035;-85
2023/09/20 14:59:53;;;;;;;5.05;2.20;;;;;;;;;;4957128;28;20062;-89
2023/09/20 15:02:30;;;;;;;5.63;2.03;;;;;;;;;;4895249;29;20045;-88
2023/09/20 17:53:12;;;;;;;19.73;6.00;;;;;;;;;;5099623;27;1536505;-86
2023/09/20 17:55:41;;;;;;;24.33;5.47;;;;;;;;;;5104663;28;20063;-86
2023/09/20 18:25:03;;;;;;;17.10;5.45;;;;;;;;;;5071796;28;20121;-84
2023/09/20 18:27:29;;;;;;;15.40;5.65;;;;;;;;;;5072424;28;20024;-86
2023/09/20 18:29:56;;;;;;;10.95;4.90;;;;;;;;;;5090456;28;20048;-86
2023/09/20 18:32:24;;;;;;;13.88;5.07;;;;;;;;;;5072096;28;20111;-88
2023/09/20 18:34:50;;;;;;;18.80;7.03;;;;;;;;;;5072126;28;20032;-85
2023/09/20 18:37:17;;;;;;;26.63;6.80;;;;;;;;;;5072191;28;20024;-85
2023/09/20 18:39:45;;;;;;;15.88;5.65;;;;;;;;;;5062754;28;20473;-85
2023/09/20 18:42:18;;;;;;;16.15;4.60;;;;;;;;;;5059759;28;20025;-89
2023/09/20 18:44:44;;;;;;;21.92;4.53;;;;;;;;;;5051751;28;20057;-86
2023/09/20 19:55:43;;;;;;;10.95;5.50;;;23.90;80.30;;;;;;4926728;29;20172;-87
2023/09/20 19:58:10;;;;;;;13.25;5.60;;;23.90;81.00;;;;;;4905518;29;20502;-85
2023/09/20 20:00:39;;;;;;;11.48;5.20;;;23.90;81.40;;;;;;4904764;29;20107;-86
2023/09/20 20:03:08;;;;;;;13.93;4.65;;;23.90;81.10;;;;;;4919404;29;20391;-87
2023/09/20 20:05:35;;;;;;;12.38;4.55;;;23.80;81.10;;;;;;4913149;29;20027;-85
2023/09/20 20:08:06;;;;;;;14.02;4.72;;;23.80;81.20;;;;;;4912341;29;20892;-89
2023/09/20 20:10:38;;;;;;;12.52;5.60;;;23.80;81.70;;;;;;4919706;29;20049;-85
2023/09/20 20:13:06;;;;;;;11.18;5.47;;;23.80;82.80;;;;;;4920254;29;20039;-88
2023/09/20 20:15:32;;;;;;;11.75;5.03;;;23.70;82.90;;;;;;4920580;29;20311;-86
2023/09/20 20:18:00;;;;;;;11.15;5.10;;;23.70;82.90;;;;;;4916321;29;20527;-87
2023/09/20 20:20:32;;;;;;;13.23;5.28;;;23.70;82.90;;;;;;4920162;29;20032;-88
2023/09/20 20:23:04;;;;;;;16.42;5.07;;;23.70;84.20;;;;;;4920390;29;20039;-86
2023/09/20 20:25:39;;;;;;;13.02;4.72;;;23.70;85.00;;;;;;4904746;29;20423;-86
2023/09/20 20:28:14;;;;;;;10.85;5.35;;;23.70;84.70;;;;;;4915887;29;20031;-85
2023/09/20 20:30:41;;;;;;;13.10;5.40;;;23.60;85.20;;;;;;4920277;29;20087;-84
2023/09/20 20:33:08;;;;;;;12.48;5.32;;;23.60;86.30;;;;;;4920317;29;20123;-86
2023/09/20 20:35:35;;;;;;;13.55;5.05;;;23.60;86.10;;;;;;4920338;29;20043;-83
2023/09/20 20:38:01;;;;;;;13.93;5.43;;;23.60;86.90;;;;;;4919757;29;20042;-88
2023/09/20 20:40:29;;;;;;;13.43;5.25;;;23.50;87.70;;;;;;4904658;29;20467;-84
2023/09/20 20:42:58;;;;;;;13.18;5.72;;;23.50;88.10;;;;;;4920115;29;20032;-87
2023/09/20 20:45:24;;;;;;;12.18;5.57;;;23.50;88.40;;;;;;4887604;29;20048;-87
2023/09/20 20:47:53;;;;;;;10.55;4.90;;;23.50;88.90;;;;;;4919003;29;20036;-84
2023/09/20 20:50:26;;;;;;;9.75;4.75;;;23.50;89.40;;;;;;4919846;29;20510;-85
2023/09/20 20:52:53;;;;;;;18.52;5.88;;;23.50;89.30;;;;;;4936892;29;20119;-87
2023/09/20 20:55:22;;;;;;;14.43;5.72;;;23.40;90.20;;;;;;4909544;29;20051;-87
2023/09/20 20:57:50;;;;;;;19.20;6.47;;;23.40;90.80;;;;;;4904882;29;20032;-87
2023/09/20 21:00:29;;;;;;;14.13;5.88;;;23.40;90.80;;;;;;4903105;29;20035;-87
2023/09/20 21:02:57;;;;;;;12.68;6.07;;;23.40;91.10;;;;;;4877678;29;20493;-85
2023/09/20 21:05:30;;;;;;;17.63;5.88;;;23.40;92.10;;;;;;4886316;29;20037;-85
2023/09/20 21:08:03;;;;;;;17.42;7.07;;;23.40;92.00;;;;;;4862716;29;20080;-88
2023/09/20 21:10:29;;;;;;;13.25;4.78;;;23.40;92.60;;;;;;4886831;29;20081;-87
2023/09/20 21:12:55;;;;;;;9.73;4.55;;;23.40;92.60;;;;;;4878306;29;20491;-85
2023/09/20 21:15:21;;;;;;;7.82;3.78;;;23.40;92.50;;;;;;4877929;29;20097;-84
2023/09/20 21:17:49;;;;;;;8.45;4.68;;;23.30;92.90;;;;;;4886055;29;20496;-85
2023/09/20 21:20:20;;;;;;;7.65;3.47;;;23.30;93.40;;;;;;4895166;29;20067;-84
2023/09/20 21:22:55;;;;;;;10.55;4.13;;;23.30;93.80;;;;;;4881220;29;20044;-85
2023/09/20 21:25:26;;;;;;;9.48;3.97;;;23.40;94.60;;;;;;4879483;29;20540;-84
2023/09/20 21:27:53;;;;;;;9.85;3.72;;;23.30;96.00;;;;;;4876263;29;20045;-84
2023/09/20 21:30:22;;;;;;;11.98;3.83;;;23.30;98.50;;;;;;4859425;29;20052;-85
2023/09/20 21:32:50;;;;;;;7.30;3.58;;;23.30;99.90;;;;;;4868706;29;20037;-83
2023/09/20 21:35:18;;;;;;;9.57;4.00;;;23.20;99.90;;;;;;4914268;29;20042;-84
2023/09/20 21:37:44;;;;;;;13.30;3.67;;;23.20;99.90;;;;;;4917122;29;20479;-86
2023/09/20 21:40:10;;;;;;;9.25;3.67;;;23.10;99.90;;;;;;4908642;29;20356;-85
2023/09/20 21:42:36;;;;;;;14.75;4.53;;;23.10;99.90;;;;;;4903429;29;20035;-85
2023/09/20 21:45:04;;;;;;;8.07;4.45;;;23.10;99.90;;;;;;4895388;29;20159;-87
2023/09/20 21:47:31;;;;;;;9.60;4.32;;;23.10;99.90;;;;;;4895520;29;20127;-87
2023/09/20 21:49:58;;;;;;;9.57;4.30;;;23.00;99.90;;;;;;4893806;29;20044;-85
2023/09/20 21:52:24;;;;;;;8.02;3.90;;;23.00;99.90;;;;;;4878374;29;20514;-85
2023/09/20 21:54:52;;;;;;;10.48;4.20;;;23.00;99.90;;;;;;4895259;29;20033;-84
2023/09/20 21:57:18;;;;;;;11.25;4.15;;;23.00;99.90;;;;;;4889055;29;20432;-85
2023/09/20 21:59:44;;;;;;;7.18;3.97;;;23.00;99.90;;;;;;4877536;29;20461;-86
2023/09/20 22:02:11;;;;;;;12.43;4.40;;;22.90;99.90;;;;;;4860991;29;20033;-85
2023/09/20 22:04:36;;;;;;;15.25;4.60;;;23.00;99.90;;;;;;4869714;29;20049;-84
2023/09/20 22:07:05;;;;;;;11.20;5.05;;;23.00;99.90;;;;;;4880893;29;20028;-85
2023/09/20 22:09:34;;;;;;;7.40;4.30;;;23.00;99.90;;;;;;4879056;29;20428;-85
2023/09/20 22:12:04;;;;;;;11.55;5.05;;;23.00;99.90;;;;;;4893957;29;20111;-83
2023/09/20 22:14:31;;;;;;;8.07;4.57;;;22.90;99.90;;;;;;4887710;29;20097;-85
2023/09/20 22:17:00;;;;;;;9.43;4.72;;;23.00;99.90;;;;;;4884283;29;20541;-84
2023/09/20 22:19:29;;;;;;;10.32;4.20;;;23.00;99.90;;;;;;4877223;29;20603;-83
2023/09/20 22:21:59;;;;;;;10.38;4.57;;;23.00;99.90;;;;;;4878990;29;20051;-83
2023/09/20 22:24:29;;;;;;;15.27;5.35;;;22.90;99.90;;;;;;4936084;29;20042;-83
2023/09/20 22:26:56;;;;;;;11.15;4.93;;;22.90;99.90;;;;;;4911092;29;20043;-82
2023/09/20 22:29:23;;;;;;;11.63;5.57;;;22.90;99.90;;;;;;4906027;29;20507;-83
2023/09/20 22:31:49;;;;;;;12.63;5.18;;;22.90;99.90;;;;;;4934676;29;20050;-81
2023/09/20 22:34:16;;;;;;;11.82;4.97;;;22.90;99.90;;;;;;4932596;29;20035;-83
2023/09/20 22:36:43;;;;;;;14.00;5.15;;;22.90;99.90;;;;;;4916787;29;20039;-82
2023/09/20 22:39:11;;;;;;;8.55;4.63;;;22.90;99.90;;;;;;4909991;29;20047;-83
2023/09/20 22:41:38;;;;;;;15.05;4.40;;;22.90;99.90;;;;;;4919237;29;20079;-84
2023/09/20 22:44:08;;;;;;;9.88;4.78;;;22.90;99.90;;;;;;4917623;29;20494;-84
2023/09/20 22:46:34;;;;;;;13.02;4.60;;;22.90;99.90;;;;;;4902154;29;20056;-83
2023/09/20 22:49:01;;;;;;;10.75;4.30;;;22.90;99.90;;;;;;4919171;29;20424;-83
2023/09/20 22:51:27;;;;;;;13.98;4.93;;;22.90;99.90;;;;;;4904688;29;20036;-83
2023/09/20 22:53:53;;;;;;;15.57;5.50;;;22.90;99.90;;;;;;4932377;29;20032;-85
2023/09/20 22:56:21;;;;;;;17.15;6.40;;;22.90;99.90;;;;;;4936123;29;20028;-83
2023/09/20 22:58:47;;;;;;;14.25;5.00;;;22.90;99.90;;;;;;4919083;29;20032;-84
2023/09/20 23:01:14;;;;;;;11.18;5.18;;;22.80;99.90;;;;;;4936168;29;20353;-83
2023/09/20 23:03:41;;;;;;;11.23;5.60;;;22.80;99.90;;;;;;4935818;29;20036;-84
2023/09/20 23:06:07;;;;;;;10.80;5.22;;;22.80;99.90;;;;;;4918917;29;20118;-84
2023/09/20 23:08:34;;;;;;;14.55;5.22;;;22.80;99.90;;;;;;4919066;29;20506;-84
2023/09/20 23:11:00;;;;;;;8.48;5.50;;;22.80;99.90;;;;;;4903459;29;20526;-84
2023/09/20 23:13:35;;;;;;;9.23;5.40;;;22.70;99.90;;;;;;4914465;29;20087;-84
2023/09/20 23:16:01;;;;;;;12.88;5.80;;;22.70;99.90;;;;;;4933595;29;20031;-86
2023/09/20 23:18:29;;;;;;;9.77;5.45;;;22.70;99.90;;;;;;4922103;29;20036;-83
2023/09/20 23:20:56;;;;;;;10.15;5.43;;;22.70;99.90;;;;;;4909164;29;20372;-83
2023/09/20 23:23:25;;;;;;;17.65;6.32;;;22.70;99.90;;;;;;4920940;29;20471;-86
2023/09/20 23:25:53;;;;;;;13.68;5.95;;;22.70;99.90;;;;;;4922728;29;20035;-84
2023/09/20 23:28:19;;;;;;;10.68;5.22;;;22.70;99.90;;;;;;4922306;29;20046;-84
2023/09/20 23:30:46;;;;;;;17.58;5.65;;;22.70;99.90;;;;;;4927371;29;20039;-83
2023/09/20 23:33:15;;;;;;;13.02;5.30;;;22.70;99.90;;;;;;4916841;29;20057;-83
2023/09/20 23:35:58;;;;;;;13.10;5.93;;;22.70;99.90;;;;;;4903854;29;20118;-82
2023/09/20 23:38:29;;;;;;;15.68;6.28;;;22.70;99.90;;;;;;4905452;29;20034;-83
2023/09/20 23:41:04;;;;;;;15.82;7.03;;;22.60;99.90;;;;;;4920337;29;20032;-85
2023/09/20 23:43:30;;;;;;;13.25;5.40;;;22.60;99.90;;;;;;4906799;29;20407;-83
2023/09/20 23:46:01;;;;;;;11.60;5.78;;;22.60;99.90;;;;;;4922017;29;20044;-84
2023/09/20 23:48:33;;;;;;;11.93;5.53;;;22.60;99.90;;;;;;4902746;29;20043;-85
2023/09/20 23:51:06;;;;;;;18.63;6.70;;;22.60;99.90;;;;;;4903356;29;20027;-82
2023/09/20 23:53:33;;;;;;;13.95;5.95;;;22.60;99.90;;;;;;4919014;29;20033;-83
2023/09/20 23:55:59;;;;;;;15.88;5.63;;;22.60;99.90;;;;;;4900660;29;20052;-82
2023/09/20 23:58:27;;;;;;;20.00;6.97;;;22.50;99.90;;;;;;4908363;29;20032;-82
